createdAt,value
2022-09-16T00:01:29.517Z,50.71
2022-09-16T00:03:31.082Z,50.87
2022-09-16T00:05:32.580Z,51.44
2022-09-16T00:07:34.131Z,50.89
2022-09-16T00:09:38.525Z,50.81
2022-09-16T00:11:39.999Z,51.79
2022-09-16T00:13:41.602Z,51.61
2022-09-16T00:15:44.130Z,51.54
2022-09-16T00:17:45.635Z,51.29
2022-09-16T00:19:47.274Z,52.97
2022-09-16T00:21:48.967Z,51.32
2022-09-16T00:23:50.891Z,51.27
2022-09-16T00:25:55.331Z,51.61
2022-09-16T00:27:56.822Z,52.04
2022-09-16T00:29:58.529Z,51.90
2022-09-16T00:32:00.158Z,52.04
2022-09-16T00:34:01.660Z,51.79
2022-09-16T00:36:07.954Z,51.47
2022-09-16T00:38:09.532Z,50.93
2022-09-16T00:40:11.099Z,51.49
2022-09-16T00:42:13.996Z,52.15
2022-09-16T00:44:51.856Z,51.49
2022-09-16T00:46:55.089Z,51.77
2022-09-16T00:48:57.713Z,53.54
2022-09-16T00:51:03.625Z,52.21
2022-09-16T00:53:07.241Z,51.65
2022-09-16T00:55:15.326Z,53.92
2022-09-16T00:57:18.921Z,52.95
2022-09-16T00:59:24.025Z,53.18
2022-09-16T01:01:25.613Z,54.02
2022-09-16T01:03:30.119Z,54.70
2022-09-16T01:05:31.722Z,53.89
2022-09-16T01:07:36.765Z,54.29
2022-09-16T01:09:38.612Z,52.47
2022-09-16T01:11:40.085Z,52.40
2022-09-16T01:13:44.668Z,53.09
2022-09-16T01:15:55.573Z,52.92
2022-09-16T01:18:11.362Z,54.12
2022-09-16T01:20:40.054Z,54.14
2022-09-16T01:23:01.753Z,53.10
2022-09-16T01:25:18.875Z,53.38
2022-09-16T01:27:45.865Z,53.40
2022-09-16T01:30:43.779Z,52.61
2022-09-16T01:33:02.839Z,54.50
2022-09-16T01:35:11.467Z,53.13
2022-09-16T01:37:24.134Z,52.63
2022-09-16T01:39:32.423Z,53.03
2022-09-16T01:41:44.899Z,53.47
2022-09-16T01:43:55.849Z,53.45
2022-09-16T01:46:03.201Z,54.08
2022-09-16T01:48:11.864Z,53.21
2022-09-16T01:50:19.673Z,53.71
2022-09-16T01:52:32.377Z,54.16
2022-09-16T01:54:40.404Z,55.44
2022-09-16T01:56:46.066Z,54.64
2022-09-16T01:58:53.162Z,54.87
2022-09-16T02:01:04.005Z,54.55
2022-09-16T02:03:10.614Z,51.53
2022-09-16T02:05:16.312Z,52.05
2022-09-16T02:07:21.003Z,51.94
2022-09-16T02:09:26.869Z,51.79
2022-09-16T02:11:29.182Z,51.91
2022-09-16T02:13:35.412Z,52.30
2022-09-16T02:15:40.604Z,52.06
2022-09-16T02:17:47.565Z,54.00
2022-09-16T02:19:56.133Z,53.70
2022-09-16T02:22:01.631Z,53.52
2022-09-16T02:24:09.301Z,55.59
2022-09-16T02:26:15.239Z,54.42
2022-09-16T02:28:22.391Z,55.18
2022-09-16T02:30:23.952Z,54.37
2022-09-16T02:32:33.405Z,53.61
2022-09-16T02:34:40.810Z,53.83
2022-09-16T02:36:47.444Z,54.98
2022-09-16T02:38:53.403Z,53.98
2022-09-16T02:40:57.520Z,54.10
2022-09-16T02:42:59.634Z,52.78
2022-09-16T02:45:03.307Z,53.11
2022-09-16T02:47:12.942Z,52.48
2022-09-16T02:49:23.626Z,53.71
2022-09-16T02:51:32.456Z,53.95
2022-09-16T02:53:45.627Z,56.21
2022-09-16T02:55:54.098Z,55.71
2022-09-16T02:57:56.077Z,56.12
2022-09-16T02:59:57.918Z,57.59
2022-09-16T03:02:00.301Z,57.72
2022-09-16T03:04:02.644Z,55.86
2022-09-16T03:06:13.607Z,57.46
2022-09-16T03:08:15.122Z,56.44
2022-09-16T03:10:18.001Z,56.69
2022-09-16T03:12:33.210Z,56.39
2022-09-16T03:14:57.432Z,56.50
2022-09-16T03:17:09.139Z,56.53
2022-09-16T03:19:17.660Z,55.80
2022-09-16T03:21:26.287Z,55.73
2022-09-16T03:23:40.578Z,55.52
2022-09-16T03:25:54.328Z,55.07
2022-09-16T03:28:01.818Z,55.17
2022-09-16T03:30:05.623Z,55.16
2022-09-16T03:32:12.147Z,54.31
2022-09-16T03:34:20.009Z,55.20
2022-09-16T03:36:26.195Z,55.45
2022-09-16T03:38:28.200Z,53.38
2022-09-16T03:40:32.606Z,54.30
2022-09-16T03:42:38.730Z,54.59
2022-09-16T03:44:40.634Z,54.15
2022-09-16T03:46:42.335Z,54.98
2022-09-16T03:48:44.077Z,55.06
2022-09-16T03:50:47.868Z,55.21
2022-09-16T03:52:49.359Z,57.92
2022-09-16T03:54:50.838Z,57.84
2022-09-16T03:56:52.360Z,56.08
2022-09-16T03:58:55.284Z,55.13
2022-09-16T04:00:56.821Z,53.92
2022-09-16T04:03:00.289Z,54.09
2022-09-16T04:05:01.868Z,53.50
2022-09-16T04:07:03.511Z,54.39
2022-09-16T04:09:05.913Z,54.37
2022-09-16T04:11:07.425Z,55.15
2022-09-16T04:13:08.898Z,54.12
2022-09-16T04:15:12.264Z,53.86
2022-09-16T04:17:13.822Z,53.38
2022-09-16T04:19:15.443Z,52.56
2022-09-16T04:21:17.490Z,53.18
2022-09-16T04:23:19.009Z,53.72
2022-09-16T04:25:20.525Z,54.05
2022-09-16T04:27:22.090Z,54.15
2022-09-16T04:29:23.708Z,53.38
2022-09-16T04:31:26.850Z,53.78
2022-09-16T04:33:28.995Z,53.27
2022-09-16T04:35:30.683Z,52.45
2022-09-16T04:37:32.139Z,54.98
2022-09-16T04:39:33.655Z,53.01
2022-09-16T04:41:35.197Z,52.68
2022-09-16T04:43:36.865Z,53.77
2022-09-16T04:45:38.430Z,53.61
2022-09-16T04:47:41.255Z,54.41
2022-09-16T04:49:42.872Z,53.86
2022-09-16T04:51:44.652Z,55.23
2022-09-16T04:53:46.962Z,54.41
2022-09-16T04:55:48.486Z,52.77
2022-09-16T04:57:50.268Z,54.71
2022-09-16T04:59:51.769Z,55.00
2022-09-16T05:01:53.324Z,55.68
2022-09-16T05:03:58.391Z,55.28
2022-09-16T05:06:07.966Z,53.67
2022-09-16T05:08:09.448Z,53.56
2022-09-16T05:10:10.939Z,54.00
2022-09-16T05:12:12.434Z,53.71
2022-09-16T05:14:16.183Z,54.25
2022-09-16T05:16:20.067Z,54.44
2022-09-16T05:18:21.569Z,54.82
2022-09-16T05:20:24.513Z,55.05
2022-09-16T05:22:26.032Z,53.88
2022-09-16T05:24:27.491Z,55.97
2022-09-16T05:26:30.822Z,55.69
2022-09-16T05:28:32.739Z,55.12
2022-09-16T05:30:34.322Z,55.61
2022-09-16T05:32:35.943Z,55.83
2022-09-16T05:34:37.439Z,55.42
2022-09-16T05:36:41.735Z,54.81
2022-09-16T05:38:59.196Z,55.33
2022-09-16T05:41:06.904Z,54.79
2022-09-16T05:43:08.448Z,54.29
2022-09-16T05:45:10.433Z,57.00
2022-09-16T05:47:12.011Z,56.25
2022-09-16T05:49:13.504Z,55.56
2022-09-16T05:51:20.559Z,55.47
2022-09-16T05:53:24.980Z,54.63
2022-09-16T05:55:26.545Z,55.28
2022-09-16T05:57:28.047Z,54.26
2022-09-16T05:59:29.852Z,55.61
2022-09-16T06:01:33.514Z,55.52
2022-09-16T06:03:36.946Z,56.97
2022-09-16T06:05:41.438Z,57.60
2022-09-16T06:07:45.260Z,55.74
2022-09-16T06:09:48.229Z,55.67
2022-09-16T06:11:51.517Z,57.43
2022-09-16T06:13:54.097Z,57.82
2022-09-16T06:15:55.660Z,57.04
2022-09-16T06:17:57.230Z,57.82
2022-09-16T06:19:58.735Z,57.57
2022-09-16T06:22:00.249Z,55.90
2022-09-16T06:24:02.213Z,54.22
2022-09-16T06:26:07.133Z,55.32
2022-09-16T06:28:08.877Z,55.45
2022-09-16T06:30:11.367Z,55.68
2022-09-16T06:32:12.891Z,56.97
2022-09-16T06:34:16.539Z,55.04
2022-09-16T06:36:19.710Z,57.67
2022-09-16T06:38:21.308Z,52.61
2022-09-16T06:40:22.894Z,54.26
2022-09-16T06:42:25.798Z,54.25
2022-09-16T06:44:27.292Z,52.78
2022-09-16T06:46:29.654Z,52.38
2022-09-16T06:48:33.250Z,53.79
2022-09-16T06:50:34.772Z,51.71
2022-09-16T06:52:36.295Z,53.82
2022-09-16T06:54:37.841Z,51.38
2022-09-16T06:56:39.454Z,52.75
2022-09-16T06:58:45.023Z,52.82
2022-09-16T07:00:46.634Z,52.46
2022-09-16T07:02:48.309Z,49.90
2022-09-16T07:04:49.896Z,51.75
2022-09-16T07:07:08.564Z,52.88
2022-09-16T07:09:10.998Z,53.84
2022-09-16T07:11:14.909Z,53.08
2022-09-16T07:13:16.442Z,52.12
2022-09-16T07:15:19.447Z,52.14
2022-09-16T07:17:20.930Z,52.18
2022-09-16T07:19:22.499Z,54.01
2022-09-16T07:21:26.016Z,51.71
2022-09-16T07:23:29.114Z,52.38
2022-09-16T07:25:35.542Z,52.00
2022-09-16T07:27:37.374Z,51.56
2022-09-16T07:29:38.874Z,52.35
2022-09-16T07:31:42.252Z,52.61
2022-09-16T07:33:46.777Z,53.99
2022-09-16T07:35:51.239Z,48.71
2022-09-16T07:38:07.682Z,48.71
2022-09-16T07:40:10.030Z,49.54
2022-09-16T07:42:11.637Z,50.06
2022-09-16T07:44:19.076Z,49.63
2022-09-16T07:46:21.617Z,52.86
2022-09-16T07:48:23.517Z,49.71
2022-09-16T07:50:25.129Z,49.77
2022-09-16T07:52:26.912Z,51.74
2022-09-16T07:54:29.875Z,47.93
2022-09-16T07:56:33.401Z,48.21
2022-09-16T07:58:34.996Z,48.89
2022-09-16T08:00:36.513Z,49.16
2022-09-16T08:02:38.605Z,48.48
2022-09-16T08:04:40.303Z,51.31
2022-09-16T08:06:42.030Z,47.67
2022-09-16T08:08:44.528Z,51.83
2022-09-16T08:10:54.407Z,49.22
2022-09-16T08:12:56.172Z,52.56
2022-09-16T08:14:58.184Z,52.26
2022-09-16T08:16:59.766Z,47.56
2022-09-16T08:19:01.410Z,48.10
2022-09-16T08:21:05.579Z,47.11
2022-09-16T08:23:07.279Z,47.90
2022-09-16T08:25:09.123Z,47.45
2022-09-16T08:27:12.080Z,48.99
2022-09-16T08:29:13.976Z,51.59
2022-09-16T08:31:16.050Z,48.02
2022-09-16T08:33:17.741Z,48.19
2022-09-16T08:35:19.223Z,47.79
2022-09-16T08:37:20.813Z,47.95
2022-09-16T08:39:22.357Z,46.61
2022-09-16T08:41:40.010Z,47.88
2022-09-16T08:43:51.363Z,49.24
2022-09-16T08:45:57.346Z,47.90
2022-09-16T08:48:09.885Z,47.74
2022-09-16T08:50:19.117Z,47.51
2022-09-16T08:52:28.834Z,49.86
2022-09-16T08:54:35.151Z,48.75
2022-09-16T08:56:40.388Z,48.11
2022-09-16T08:58:46.988Z,48.62
2022-09-16T09:00:53.153Z,48.07
2022-09-16T09:02:58.828Z,47.71
2022-09-16T09:05:01.322Z,52.05
2022-09-16T09:07:12.591Z,44.08
2022-09-16T09:09:26.757Z,46.91
2022-09-16T09:11:35.116Z,47.52
2022-09-16T09:13:57.558Z,46.07
2022-09-16T09:16:09.937Z,45.70
2022-09-16T09:18:29.507Z,45.77
2022-09-16T09:20:45.495Z,46.13
2022-09-16T09:23:02.283Z,47.58
2022-09-16T09:25:21.999Z,45.03
2022-09-16T09:27:27.578Z,43.12
2022-09-16T09:29:52.948Z,45.38
2022-09-16T09:31:59.694Z,45.73
2022-09-16T09:34:08.988Z,46.22
2022-09-16T09:36:36.295Z,46.28
2022-09-16T09:39:14.444Z,45.20
2022-09-16T09:41:23.735Z,44.91
2022-09-16T09:43:31.661Z,45.31
2022-09-16T09:45:37.668Z,44.97
2022-09-16T09:47:43.843Z,45.76
2022-09-16T09:49:49.832Z,46.56
2022-09-16T09:51:56.889Z,44.54
2022-09-16T09:54:02.745Z,44.18
2022-09-16T09:56:15.738Z,52.05
2022-09-16T09:58:26.717Z,42.15
2022-09-16T10:00:28.739Z,46.05
2022-09-16T10:02:31.826Z,43.89
2022-09-16T10:04:38.079Z,42.15
2022-09-16T10:06:39.778Z,43.29
2022-09-16T10:08:45.663Z,40.04
2022-09-16T10:10:49.730Z,39.44
2022-09-16T10:12:51.480Z,43.63
2022-09-16T10:14:53.022Z,39.51
2022-09-16T10:16:55.167Z,41.53
2022-09-16T10:19:02.850Z,38.46
2022-09-16T10:21:07.906Z,39.11
2022-09-16T10:23:12.846Z,39.03
2022-09-16T10:25:23.434Z,40.79
2022-09-16T10:27:27.343Z,40.93
2022-09-16T10:29:29.385Z,41.04
2022-09-16T10:31:36.652Z,38.96
2022-09-16T10:33:43.449Z,39.89
2022-09-16T10:35:54.731Z,41.48
2022-09-16T10:37:58.193Z,40.96
2022-09-16T10:40:00.018Z,39.37
2022-09-16T10:42:03.002Z,40.94
2022-09-16T10:44:17.223Z,39.94
2022-09-16T10:46:19.923Z,39.80
2022-09-16T10:48:26.502Z,39.90
2022-09-16T10:50:28.408Z,40.66
2022-09-16T10:52:32.578Z,39.25
2022-09-16T10:54:34.460Z,38.58
2022-09-16T10:56:49.915Z,38.29
2022-09-16T10:59:01.955Z,38.48
2022-09-16T11:01:21.702Z,40.78
2022-09-16T11:03:59.074Z,38.51
2022-09-16T11:06:15.990Z,39.22
2022-09-16T11:08:31.582Z,40.28
2022-09-16T11:10:40.734Z,38.27
2022-09-16T11:13:11.293Z,42.09
2022-09-16T11:15:24.952Z,41.56
2022-09-16T11:17:38.272Z,41.05
2022-09-16T11:20:01.910Z,39.73
2022-09-16T11:22:17.821Z,41.56
2022-09-16T11:24:41.358Z,38.93
2022-09-16T11:26:50.869Z,37.59
2022-09-16T11:29:07.496Z,38.16
2022-09-16T11:31:20.843Z,36.84
2022-09-16T11:33:30.301Z,38.26
2022-09-16T11:36:13.954Z,37.70
2022-09-16T11:38:26.127Z,39.29
2022-09-16T11:40:42.731Z,39.34
2022-09-16T11:42:51.478Z,38.86
2022-09-16T11:44:59.655Z,38.52
2022-09-16T11:47:14.681Z,40.09
2022-09-16T11:49:30.228Z,38.96
2022-09-16T11:51:50.108Z,37.75
2022-09-16T11:54:04.808Z,38.71
2022-09-16T11:56:15.567Z,38.58
2022-09-16T11:58:35.043Z,36.03
2022-09-16T12:00:39.586Z,37.73
2022-09-16T12:02:46.733Z,38.78
2022-09-16T12:04:53.743Z,37.92
2022-09-16T12:07:03.408Z,35.57
2022-09-16T12:09:11.059Z,38.11
2022-09-16T12:11:22.062Z,37.05
2022-09-16T12:13:27.526Z,37.01
2022-09-16T12:17:49.201Z,34.58
2022-09-16T12:19:55.972Z,37.47
2022-09-16T12:22:04.007Z,34.93
2022-09-16T12:24:14.651Z,35.71
2022-09-16T12:26:20.059Z,37.16
2022-09-16T12:28:26.432Z,38.02
2022-09-16T12:30:34.731Z,37.42
2022-09-16T12:32:47.120Z,37.71
2022-09-16T12:34:53.133Z,39.20
2022-09-16T12:37:00.782Z,38.85
2022-09-16T12:39:02.404Z,39.08
2022-09-16T12:41:22.659Z,39.33
2022-09-16T12:43:49.925Z,39.78
2022-09-16T12:46:21.258Z,42.72
2022-09-16T12:48:46.950Z,40.33
2022-09-16T12:51:15.806Z,40.89
2022-09-16T12:53:49.688Z,42.43
2022-09-16T12:56:02.690Z,40.96
2022-09-16T12:58:21.105Z,42.24
2022-09-16T13:00:28.476Z,42.88
2022-09-16T13:02:37.295Z,43.13
2022-09-16T13:04:42.724Z,42.92
2022-09-16T13:06:48.084Z,41.30
2022-09-16T13:08:50.336Z,41.53
2022-09-16T13:11:28.022Z,40.79
2022-09-16T13:13:31.690Z,41.40
2022-09-16T13:15:37.239Z,41.35
2022-09-16T13:17:40.123Z,40.98
2022-09-16T13:19:47.930Z,39.19
2022-09-16T13:21:54.292Z,41.97
2022-09-16T13:24:02.226Z,41.42
2022-09-16T13:26:06.151Z,43.88
2022-09-16T13:28:24.326Z,40.58
2022-09-16T13:30:36.424Z,40.94
2022-09-16T13:32:42.348Z,40.85
2022-09-16T13:34:43.826Z,41.08
2022-09-16T13:36:45.433Z,39.38
2022-09-16T13:38:48.821Z,40.02
2022-09-16T13:40:57.943Z,40.85
2022-09-16T13:43:14.031Z,39.77
2022-09-16T13:45:31.868Z,44.14
2022-09-16T13:47:36.990Z,44.89
2022-09-16T13:49:48.848Z,42.28
2022-09-16T13:51:51.843Z,43.36
2022-09-16T13:53:53.446Z,42.26
2022-09-16T13:56:00.844Z,43.33
2022-09-16T13:58:10.531Z,45.28
2022-09-16T14:00:17.470Z,46.96
2022-09-16T14:02:28.820Z,48.64
2022-09-16T14:04:48.627Z,53.48
2022-09-16T14:07:11.103Z,54.37
2022-09-16T14:09:27.299Z,53.37
2022-09-16T14:11:34.434Z,52.84
2022-09-16T14:13:40.714Z,51.74
2022-09-16T14:15:45.187Z,50.54
2022-09-16T14:17:51.703Z,47.97
2022-09-16T14:19:58.694Z,50.03
2022-09-16T14:22:02.675Z,48.85
2022-09-16T14:24:15.071Z,47.65
2022-09-16T14:26:18.341Z,47.63
2022-09-16T14:28:21.604Z,48.24
2022-09-16T14:30:23.161Z,47.59
2022-09-16T14:32:27.159Z,44.87
2022-09-16T14:34:33.003Z,46.85
2022-09-16T14:36:38.920Z,41.96
2022-09-16T14:38:46.641Z,42.20
2022-09-16T14:40:48.547Z,42.99
2022-09-16T14:42:54.019Z,43.33
2022-09-16T14:44:57.651Z,44.13
2022-09-16T14:47:09.127Z,43.86
2022-09-16T14:49:16.462Z,41.71
2022-09-16T14:51:22.927Z,40.95
2022-09-16T14:53:35.798Z,41.69
2022-09-16T14:55:47.953Z,41.68
2022-09-16T14:57:50.239Z,42.90
2022-09-16T14:59:54.639Z,39.95
2022-09-16T15:02:01.807Z,42.19
2022-09-16T15:04:07.920Z,41.35
2022-09-16T15:06:14.151Z,43.00
2022-09-16T15:08:20.476Z,42.84
2022-09-16T15:10:26.887Z,48.66
2022-09-16T15:12:31.095Z,46.72
2022-09-16T15:14:37.043Z,42.48
2022-09-16T15:16:43.877Z,40.51
2022-09-16T15:18:53.428Z,42.45
2022-09-16T15:21:06.994Z,41.26
2022-09-16T15:23:20.734Z,42.48
2022-09-16T15:25:26.291Z,43.11
2022-09-16T15:27:29.583Z,41.75
2022-09-16T15:29:32.983Z,44.44
2022-09-16T15:31:37.131Z,42.37
2022-09-16T15:33:41.865Z,43.23
2022-09-16T15:35:48.839Z,44.37
2022-09-16T15:37:50.975Z,43.86
2022-09-16T15:39:52.593Z,43.67
2022-09-16T15:42:11.651Z,43.87
2022-09-16T15:44:17.066Z,44.32
2022-09-16T15:46:21.531Z,44.40
2022-09-16T15:48:25.040Z,43.95
2022-09-16T15:50:36.905Z,43.22
2022-09-16T15:52:55.576Z,47.54
2022-09-16T15:55:00.657Z,50.25
2022-09-16T15:57:09.352Z,49.59
2022-09-16T15:59:25.333Z,51.87
2022-09-16T16:01:53.606Z,48.83
2022-09-16T16:03:57.298Z,44.06
2022-09-16T16:05:58.978Z,44.19
2022-09-16T16:08:06.174Z,44.31
2022-09-16T16:10:13.340Z,42.87
2022-09-16T16:12:17.055Z,43.15
2022-09-16T16:14:20.970Z,43.13
2022-09-16T16:16:23.299Z,42.86
2022-09-16T16:18:25.043Z,43.56
2022-09-16T16:20:27.217Z,43.58
2022-09-16T16:22:29.078Z,44.14
2022-09-16T16:24:30.996Z,45.30
2022-09-16T16:26:32.603Z,44.24
2022-09-16T16:28:36.027Z,44.39
2022-09-16T16:30:37.664Z,44.26
2022-09-16T16:32:39.214Z,45.58
2022-09-16T16:34:42.746Z,44.91
2022-09-16T16:36:44.286Z,44.63
2022-09-16T16:38:46.162Z,44.21
2022-09-16T16:40:50.370Z,45.71
2022-09-16T16:42:52.057Z,46.07
2022-09-16T16:44:55.011Z,45.54
2022-09-16T16:46:56.582Z,53.00
2022-09-16T16:48:58.272Z,53.95
2022-09-16T16:51:01.608Z,53.43
2022-09-16T16:53:03.157Z,51.54
2022-09-16T16:55:05.631Z,51.80
2022-09-16T16:57:07.682Z,50.17
2022-09-16T16:59:09.371Z,47.52
2022-09-16T17:01:14.278Z,44.28
2022-09-16T17:03:16.196Z,48.43
2022-09-16T17:05:17.852Z,45.86
2022-09-16T17:07:26.054Z,45.31
2022-09-16T17:09:28.107Z,48.07
2022-09-16T17:11:30.082Z,44.42
2022-09-16T17:13:31.722Z,45.96
2022-09-16T17:15:33.390Z,46.22
2022-09-16T17:17:36.300Z,43.80
2022-09-16T17:19:38.154Z,44.77
2022-09-16T17:21:40.540Z,45.01
2022-09-16T17:23:42.935Z,45.52
2022-09-16T17:25:49.724Z,46.05
2022-09-16T17:27:51.604Z,46.49
2022-09-16T17:29:53.719Z,45.79
2022-09-16T17:31:55.521Z,45.98
2022-09-16T17:34:00.525Z,45.59
2022-09-16T17:36:03.867Z,46.26
2022-09-16T17:38:07.060Z,46.70
2022-09-16T17:40:09.403Z,47.17
2022-09-16T17:42:11.236Z,48.32
2022-09-16T17:44:14.197Z,48.06
2022-09-16T17:46:17.254Z,47.96
2022-09-16T17:48:19.086Z,47.91
2022-09-16T17:50:23.118Z,48.64
2022-09-16T17:52:24.898Z,48.58
2022-09-16T17:54:26.529Z,48.86
2022-09-16T17:56:28.471Z,48.49
2022-09-16T17:58:30.566Z,48.79
2022-09-16T18:00:32.233Z,48.39
2022-09-16T18:02:35.280Z,47.42
2022-09-16T18:04:37.035Z,48.12
2022-09-16T18:06:43.066Z,47.96
2022-09-16T18:08:45.298Z,48.34
2022-09-16T18:10:52.152Z,48.85
2022-09-16T18:12:54.010Z,49.62
2022-09-16T18:14:55.728Z,48.69
2022-09-16T18:16:57.525Z,48.63
2022-09-16T18:19:01.674Z,49.73
2022-09-16T18:21:05.206Z,49.22
2022-09-16T18:23:08.423Z,49.64
2022-09-16T18:25:10.048Z,48.96
2022-09-16T18:27:11.632Z,48.89
2022-09-16T18:29:14.147Z,48.77
2022-09-16T18:31:18.548Z,48.97
2022-09-16T18:33:20.359Z,48.62
2022-09-16T18:35:22.249Z,49.45
2022-09-16T18:37:23.846Z,49.82
2022-09-16T18:39:27.019Z,50.71
2022-09-16T18:41:30.041Z,49.45
2022-09-16T18:43:31.901Z,49.15
2022-09-16T18:45:33.643Z,49.82
2022-09-16T18:47:35.268Z,50.38
2022-09-16T18:49:36.883Z,51.13
2022-09-16T18:51:39.956Z,50.50
2022-09-16T18:53:41.528Z,50.36
2022-09-16T18:55:44.491Z,50.70
2022-09-16T18:57:46.206Z,51.95
2022-09-16T18:59:47.809Z,50.64
2022-09-16T19:01:52.415Z,50.96
2022-09-16T19:03:57.388Z,49.96
2022-09-16T19:05:58.965Z,50.54
2022-09-16T19:08:00.874Z,51.21
2022-09-16T19:10:02.629Z,50.82
2022-09-16T19:12:06.178Z,50.92
2022-09-16T19:14:09.923Z,51.87
2022-09-16T19:16:12.833Z,51.81
2022-09-16T19:18:14.435Z,51.84
2022-09-16T19:20:16.500Z,51.57
2022-09-16T19:22:18.338Z,52.10
2022-09-16T19:24:23.277Z,52.45
2022-09-16T19:26:25.517Z,51.54
2022-09-16T19:28:28.692Z,52.08
2022-09-16T19:30:30.368Z,51.57
2022-09-16T19:32:31.983Z,51.55
2022-09-16T19:34:33.725Z,51.18
2022-09-16T19:36:36.442Z,51.04
2022-09-16T19:38:38.036Z,50.09
2022-09-16T19:40:39.597Z,50.54
2022-09-16T19:42:41.195Z,49.45
2022-09-16T19:44:44.245Z,48.75
2022-09-16T19:46:46.032Z,49.32
2022-09-16T19:48:49.143Z,49.93
2022-09-16T19:50:51.685Z,50.38
2022-09-16T19:52:53.414Z,49.24
2022-09-16T19:54:55.114Z,48.77
2022-09-16T19:56:56.721Z,48.62
2022-09-16T19:58:58.906Z,49.30
2022-09-16T20:01:04.854Z,49.23
2022-09-16T20:03:06.452Z,49.72
2022-09-16T20:05:09.299Z,49.17
2022-09-16T20:07:10.874Z,49.40
2022-09-16T20:09:12.948Z,49.60
2022-09-16T20:11:16.357Z,49.20
2022-09-16T20:13:18.515Z,49.17
2022-09-16T20:15:20.092Z,49.21
2022-09-16T20:17:23.093Z,49.36
2022-09-16T20:19:24.740Z,49.50
2022-09-16T20:21:27.053Z,49.25
2022-09-16T20:23:28.787Z,49.58
2022-09-16T20:25:30.704Z,50.00
2022-09-16T20:27:32.261Z,49.86
2022-09-16T20:29:33.912Z,50.03
2022-09-16T20:31:37.194Z,50.83
2022-09-16T20:33:40.836Z,50.18
2022-09-16T20:35:42.429Z,50.40
2022-09-16T20:37:46.528Z,50.34
2022-09-16T20:39:48.248Z,49.65
2022-09-16T20:41:49.961Z,49.84
2022-09-16T20:43:52.465Z,50.84
2022-09-16T20:45:55.164Z,49.33
2022-09-16T20:47:56.757Z,49.39
2022-09-16T20:49:59.746Z,49.51
2022-09-16T20:52:01.651Z,48.00
2022-09-16T20:54:07.627Z,48.55
2022-09-16T20:56:11.797Z,49.29
2022-09-16T20:58:13.495Z,49.43
2022-09-16T21:00:15.374Z,50.70
2022-09-16T21:02:17.170Z,49.18
2022-09-16T21:04:20.623Z,49.06
2022-09-16T21:06:25.292Z,49.88
2022-09-16T21:08:29.784Z,49.73
2022-09-16T21:10:38.027Z,49.86
2022-09-16T21:12:39.659Z,50.36
2022-09-16T21:14:41.160Z,49.92
2022-09-16T21:16:44.012Z,51.18
2022-09-16T21:18:45.789Z,50.08
2022-09-16T21:20:47.619Z,50.46
2022-09-16T21:22:50.653Z,50.42
2022-09-16T21:24:52.249Z,50.88
2022-09-16T21:26:53.864Z,52.10
2022-09-16T21:28:57.550Z,51.37
2022-09-16T21:31:01.022Z,51.85
2022-09-16T21:33:02.678Z,52.10
2022-09-16T21:35:05.140Z,50.99
2022-09-16T21:37:06.658Z,51.06
2022-09-16T21:39:10.474Z,51.67
2022-09-16T21:41:14.038Z,52.32
2022-09-16T21:43:18.577Z,52.04
2022-09-16T21:45:20.330Z,52.17
2022-09-16T21:47:21.894Z,51.65
2022-09-16T21:49:23.643Z,51.53
2022-09-16T21:51:25.345Z,52.03
2022-09-16T21:53:26.890Z,52.16
2022-09-16T21:55:31.304Z,51.99
2022-09-16T21:57:32.839Z,52.61
2022-09-16T21:59:34.754Z,52.55
2022-09-16T22:01:37.209Z,52.37
2022-09-16T22:03:39.648Z,53.09
2022-09-16T22:05:41.187Z,52.98
2022-09-16T22:07:42.736Z,52.42
2022-09-16T22:09:44.239Z,52.50
2022-09-16T22:11:47.860Z,52.43
2022-09-16T22:13:51.277Z,52.31
2022-09-16T22:15:52.843Z,51.95
2022-09-16T22:17:54.413Z,52.24
2022-09-16T22:19:55.975Z,51.82
2022-09-16T22:21:57.478Z,52.56
2022-09-16T22:23:59.832Z,52.34
2022-09-16T22:26:04.490Z,51.72
2022-09-16T22:28:07.418Z,50.83
2022-09-16T22:30:10.810Z,51.80
2022-09-16T22:32:12.552Z,51.67
2022-09-16T22:34:14.056Z,51.46
2022-09-16T22:36:17.874Z,50.86
2022-09-16T22:38:19.553Z,51.54
2022-09-16T22:40:21.579Z,51.94
2022-09-16T22:42:23.101Z,52.04
2022-09-16T22:44:26.005Z,51.84
2022-09-16T22:46:29.974Z,51.72
2022-09-16T22:48:31.731Z,52.60
2022-09-16T22:50:33.248Z,51.43
2022-09-16T22:52:35.108Z,51.43
2022-09-16T22:54:36.626Z,51.37
2022-09-16T22:56:38.205Z,51.31
2022-09-16T22:58:39.993Z,52.14
2022-09-16T23:00:42.953Z,52.25
2022-09-16T23:02:44.481Z,52.04
2022-09-16T23:04:45.995Z,51.86
2022-09-16T23:06:47.761Z,51.59
2022-09-16T23:08:49.390Z,51.55
2022-09-16T23:10:51.536Z,51.61
2022-09-16T23:12:53.136Z,52.04
2022-09-16T23:14:54.720Z,51.12
2022-09-16T23:16:57.718Z,51.49
2022-09-16T23:19:00.739Z,50.44
2022-09-16T23:21:04.030Z,51.45
2022-09-16T23:23:06.125Z,51.92
2022-09-16T23:25:08.710Z,51.63
2022-09-16T23:27:10.257Z,51.36
2022-09-16T23:29:13.045Z,52.12
2022-09-16T23:31:17.286Z,52.08
2022-09-16T23:33:20.318Z,51.99
2022-09-16T23:35:21.873Z,52.25
2022-09-16T23:37:23.366Z,52.56
2022-09-16T23:39:25.012Z,53.18
2022-09-16T23:41:26.553Z,52.21
2022-09-16T23:43:28.048Z,51.86
2022-09-16T23:45:29.566Z,52.58
2022-09-16T23:47:31.069Z,52.16
2022-09-16T23:49:33.940Z,52.51
2022-09-16T23:51:35.696Z,52.33
2022-09-16T23:53:38.125Z,52.37
2022-09-16T23:55:43.353Z,52.21
2022-09-16T23:57:47.903Z,52.25
2022-09-16T23:59:49.505Z,53.07
